sensor_id;sensor_type;location;lat;lon;timestamp;temperature;humidity
15203;DHT22;7702;51.046;5.184;2023-04-06T00:01:35;1.90;99.90
15203;DHT22;7702;51.046;5.184;2023-04-06T00:04:01;1.90;99.90
15203;DHT22;7702;51.046;5.184;2023-04-06T00:06:27;1.90;99.90
15203;DHT22;7702;51.046;5.184;2023-04-06T00:08:54;1.90;99.90
15203;DHT22;7702;51.046;5.184;2023-04-06T00:11:20;2.00;99.90
15203;DHT22;7702;51.046;5.184;2023-04-06T00:13:46;2.00;99.90
15203;DHT22;7702;51.046;5.184;2023-04-06T00:16:12;2.00;99.90
15203;DHT22;7702;51.046;5.184;2023-04-06T00:18:38;1.90;99.90
15203;DHT22;7702;51.046;5.184;2023-04-06T00:21:03;1.90;99.90
15203;DHT22;7702;51.046;5.184;2023-04-06T00:23:30;1.90;99.90
15203;DHT22;7702;51.046;5.184;2023-04-06T00:25:55;1.90;99.90
15203;DHT22;7702;51.046;5.184;2023-04-06T00:28:21;1.90;99.90
15203;DHT22;7702;51.046;5.184;2023-04-06T00:30:54;1.90;99.90
15203;DHT22;7702;51.046;5.184;2023-04-06T00:33:21;1.90;99.90
15203;DHT22;7702;51.046;5.184;2023-04-06T00:35:47;1.90;99.90
15203;DHT22;7702;51.046;5.184;2023-04-06T00:38:14;1.90;99.90
15203;DHT22;7702;51.046;5.184;2023-04-06T00:40:40;1.80;99.90
15203;DHT22;7702;51.046;5.184;2023-04-06T00:43:07;1.90;99.90
15203;DHT22;7702;51.046;5.184;2023-04-06T00:45:34;2.00;99.90
15203;DHT22;7702;51.046;5.184;2023-04-06T00:48:00;1.90;99.90
15203;DHT22;7702;51.046;5.184;2023-04-06T00:50:27;1.90;99.90
15203;DHT22;7702;51.046;5.184;2023-04-06T00:52:54;1.90;99.90
15203;DHT22;7702;51.046;5.184;2023-04-06T00:55:20;1.80;99.90
15203;DHT22;7702;51.046;5.184;2023-04-06T00:57:45;1.80;99.90
15203;DHT22;7702;51.046;5.184;2023-04-06T01:00:12;1.80;99.90
15203;DHT22;7702;51.046;5.184;2023-04-06T01:02:38;1.70;99.90
15203;DHT22;7702;51.046;5.184;2023-04-06T01:05:04;1.70;99.90
15203;DHT22;7702;51.046;5.184;2023-04-06T01:07:30;1.70;99.90
15203;DHT22;7702;51.046;5.184;2023-04-06T01:09:58;1.70;99.90
15203;DHT22;7702;51.046;5.184;2023-04-06T01:12:24;1.70;99.90
15203;DHT22;7702;51.046;5.184;2023-04-06T01:14:50;1.70;99.90
15203;DHT22;7702;51.046;5.184;2023-04-06T01:17:16;1.60;99.90
15203;DHT22;7702;51.046;5.184;2023-04-06T01:19:42;1.60;99.90
15203;DHT22;7702;51.046;5.184;2023-04-06T01:22:08;1.60;99.90
15203;DHT22;7702;51.046;5.184;2023-04-06T01:24:33;1.60;99.90
15203;DHT22;7702;51.046;5.184;2023-04-06T01:26:59;1.60;99.90
15203;DHT22;7702;51.046;5.184;2023-04-06T01:29:26;1.60;99.90
15203;DHT22;7702;51.046;5.184;2023-04-06T01:31:52;1.60;99.90
15203;DHT22;7702;51.046;5.184;2023-04-06T01:34:17;1.70;99.90
15203;DHT22;7702;51.046;5.184;2023-04-06T01:36:43;1.70;99.90
15203;DHT22;7702;51.046;5.184;2023-04-06T01:39:09;1.60;99.90
15203;DHT22;7702;51.046;5.184;2023-04-06T01:41:35;1.60;99.90
15203;DHT22;7702;51.046;5.184;2023-04-06T01:44:01;1.60;99.90
15203;DHT22;7702;51.046;5.184;2023-04-06T01:46:27;1.60;99.90
15203;DHT22;7702;51.046;5.184;2023-04-06T01:48:53;1.60;99.90
15203;DHT22;7702;51.046;5.184;2023-04-06T01:51:19;1.70;99.90
15203;DHT22;7702;51.046;5.184;2023-04-06T01:53:44;1.80;99.90
15203;DHT22;7702;51.046;5.184;2023-04-06T01:56:11;1.80;99.90
15203;DHT22;7702;51.046;5.184;2023-04-06T01:58:37;1.80;99.90
15203;DHT22;7702;51.046;5.184;2023-04-06T02:01:02;1.90;99.90
15203;DHT22;7702;51.046;5.184;2023-04-06T02:03:28;1.90;99.90
15203;DHT22;7702;51.046;5.184;2023-04-06T02:05:54;1.90;99.90
15203;DHT22;7702;51.046;5.184;2023-04-06T02:08:20;2.00;99.90
15203;DHT22;7702;51.046;5.184;2023-04-06T02:10:46;2.10;99.90
15203;DHT22;7702;51.046;5.184;2023-04-06T02:13:11;2.10;99.90
15203;DHT22;7702;51.046;5.184;2023-04-06T02:15:37;2.20;99.90
15203;DHT22;7702;51.046;5.184;2023-04-06T02:18:03;2.20;99.90
15203;DHT22;7702;51.046;5.184;2023-04-06T02:20:29;2.20;99.90
15203;DHT22;7702;51.046;5.184;2023-04-06T02:22:58;2.30;99.90
15203;DHT22;7702;51.046;5.184;2023-04-06T02:25:24;2.40;99.90
15203;DHT22;7702;51.046;5.184;2023-04-06T02:27:49;2.30;99.90
15203;DHT22;7702;51.046;5.184;2023-04-06T02:30:15;2.30;99.90
15203;DHT22;7702;51.046;5.184;2023-04-06T02:32:41;2.40;99.90
15203;DHT22;7702;51.046;5.184;2023-04-06T02:35:07;2.50;99.90
15203;DHT22;7702;51.046;5.184;2023-04-06T02:37:33;2.50;99.90
15203;DHT22;7702;51.046;5.184;2023-04-06T02:39:59;2.50;99.90
15203;DHT22;7702;51.046;5.184;2023-04-06T02:42:25;2.50;99.90
15203;DHT22;7702;51.046;5.184;2023-04-06T02:44:50;2.60;99.90
15203;DHT22;7702;51.046;5.184;2023-04-06T02:47:16;2.60;99.90
15203;DHT22;7702;51.046;5.184;2023-04-06T02:49:42;2.60;99.90
15203;DHT22;7702;51.046;5.184;2023-04-06T02:52:08;2.70;99.90
15203;DHT22;7702;51.046;5.184;2023-04-06T02:54:34;2.80;99.90
15203;DHT22;7702;51.046;5.184;2023-04-06T02:56:59;2.80;99.90
15203;DHT22;7702;51.046;5.184;2023-04-06T02:59:25;2.80;99.90
15203;DHT22;7702;51.046;5.184;2023-04-06T03:01:51;2.80;99.90
15203;DHT22;7702;51.046;5.184;2023-04-06T03:04:17;2.80;99.90
15203;DHT22;7702;51.046;5.184;2023-04-06T03:06:42;2.90;99.90
15203;DHT22;7702;51.046;5.184;2023-04-06T03:09:08;3.00;99.90
15203;DHT22;7702;51.046;5.184;2023-04-06T03:11:34;3.10;99.90
15203;DHT22;7702;51.046;5.184;2023-04-06T03:14:00;3.10;99.90
15203;DHT22;7702;51.046;5.184;2023-04-06T03:16:26;3.10;99.90
15203;DHT22;7702;51.046;5.184;2023-04-06T03:18:52;3.10;99.90
15203;DHT22;7702;51.046;5.184;2023-04-06T03:21:17;3.10;99.90
15203;DHT22;7702;51.046;5.184;2023-04-06T03:23:44;3.00;99.90
15203;DHT22;7702;51.046;5.184;2023-04-06T03:26:10;3.00;99.90
15203;DHT22;7702;51.046;5.184;2023-04-06T03:28:37;3.10;99.90
15203;DHT22;7702;51.046;5.184;2023-04-06T03:31:02;3.00;99.90
15203;DHT22;7702;51.046;5.184;2023-04-06T03:33:28;3.00;99.90
15203;DHT22;7702;51.046;5.184;2023-04-06T03:35:54;3.00;99.90
15203;DHT22;7702;51.046;5.184;2023-04-06T03:38:20;3.00;99.90
15203;DHT22;7702;51.046;5.184;2023-04-06T03:40:46;3.00;99.90
15203;DHT22;7702;51.046;5.184;2023-04-06T03:43:11;3.00;99.90
15203;DHT22;7702;51.046;5.184;2023-04-06T03:45:37;3.00;99.90
15203;DHT22;7702;51.046;5.184;2023-04-06T03:48:04;3.00;99.90
15203;DHT22;7702;51.046;5.184;2023-04-06T03:50:29;2.90;99.90
15203;DHT22;7702;51.046;5.184;2023-04-06T03:52:55;2.90;99.90
15203;DHT22;7702;51.046;5.184;2023-04-06T03:55:21;2.80;99.90
15203;DHT22;7702;51.046;5.184;2023-04-06T03:57:48;2.90;99.90
15203;DHT22;7702;51.046;5.184;2023-04-06T04:00:14;2.80;99.90
15203;DHT22;7702;51.046;5.184;2023-04-06T04:02:40;2.90;99.90
15203;DHT22;7702;51.046;5.184;2023-04-06T04:05:06;2.90;99.90
15203;DHT22;7702;51.046;5.184;2023-04-06T04:07:32;2.90;99.90
15203;DHT22;7702;51.046;5.184;2023-04-06T04:09:58;3.00;99.90
15203;DHT22;7702;51.046;5.184;2023-04-06T04:12:23;3.00;99.90
15203;DHT22;7702;51.046;5.184;2023-04-06T04:14:49;3.00;99.90
15203;DHT22;7702;51.046;5.184;2023-04-06T04:17:15;3.10;99.90
15203;DHT22;7702;51.046;5.184;2023-04-06T04:19:41;3.10;99.90
15203;DHT22;7702;51.046;5.184;2023-04-06T04:22:06;3.10;99.90
15203;DHT22;7702;51.046;5.184;2023-04-06T04:24:32;3.20;99.90
15203;DHT22;7702;51.046;5.184;2023-04-06T04:26:59;3.20;99.90
15203;DHT22;7702;51.046;5.184;2023-04-06T04:29:26;3.20;99.90
15203;DHT22;7702;51.046;5.184;2023-04-06T04:31:52;3.20;99.90
15203;DHT22;7702;51.046;5.184;2023-04-06T04:34:18;3.20;99.90
15203;DHT22;7702;51.046;5.184;2023-04-06T04:36:49;3.30;99.90
15203;DHT22;7702;51.046;5.184;2023-04-06T04:39:15;3.40;99.90
15203;DHT22;7702;51.046;5.184;2023-04-06T04:41:41;3.40;99.90
15203;DHT22;7702;51.046;5.184;2023-04-06T04:44:06;3.40;99.90
15203;DHT22;7702;51.046;5.184;2023-04-06T04:46:32;3.40;99.90
15203;DHT22;7702;51.046;5.184;2023-04-06T04:49:00;3.50;99.90
15203;DHT22;7702;51.046;5.184;2023-04-06T04:51:25;3.60;99.90
15203;DHT22;7702;51.046;5.184;2023-04-06T04:53:51;3.60;99.90
15203;DHT22;7702;51.046;5.184;2023-04-06T04:56:17;3.60;99.90
15203;DHT22;7702;51.046;5.184;2023-04-06T04:58:42;3.70;99.90
15203;DHT22;7702;51.046;5.184;2023-04-06T05:01:08;3.70;99.90
15203;DHT22;7702;51.046;5.184;2023-04-06T05:03:34;3.80;99.90
15203;DHT22;7702;51.046;5.184;2023-04-06T05:06:01;3.80;99.90
15203;DHT22;7702;51.046;5.184;2023-04-06T05:08:27;3.90;99.90
15203;DHT22;7702;51.046;5.184;2023-04-06T05:10:52;4.00;99.90
15203;DHT22;7702;51.046;5.184;2023-04-06T05:13:18;4.00;99.90
15203;DHT22;7702;51.046;5.184;2023-04-06T05:15:44;4.00;99.90
15203;DHT22;7702;51.046;5.184;2023-04-06T05:18:12;4.00;99.90
15203;DHT22;7702;51.046;5.184;2023-04-06T05:20:38;4.00;99.90
15203;DHT22;7702;51.046;5.184;2023-04-06T05:23:04;4.10;99.90
15203;DHT22;7702;51.046;5.184;2023-04-06T05:25:30;4.10;99.90
15203;DHT22;7702;51.046;5.184;2023-04-06T05:27:57;4.10;99.90
15203;DHT22;7702;51.046;5.184;2023-04-06T05:30:24;4.10;99.90
15203;DHT22;7702;51.046;5.184;2023-04-06T05:32:50;4.20;99.90
15203;DHT22;7702;51.046;5.184;2023-04-06T05:35:16;4.30;99.90
15203;DHT22;7702;51.046;5.184;2023-04-06T05:37:43;4.20;99.90
15203;DHT22;7702;51.046;5.184;2023-04-06T05:40:09;4.30;99.90
15203;DHT22;7702;51.046;5.184;2023-04-06T05:42:42;4.30;99.90
15203;DHT22;7702;51.046;5.184;2023-04-06T05:45:08;4.40;99.90
15203;DHT22;7702;51.046;5.184;2023-04-06T05:47:35;4.40;99.90
15203;DHT22;7702;51.046;5.184;2023-04-06T05:50:01;4.40;99.90
15203;DHT22;7702;51.046;5.184;2023-04-06T05:52:26;4.50;99.90
15203;DHT22;7702;51.046;5.184;2023-04-06T05:54:52;4.50;99.90
15203;DHT22;7702;51.046;5.184;2023-04-06T05:57:18;4.60;99.90
15203;DHT22;7702;51.046;5.184;2023-04-06T05:59:44;4.50;99.90
15203;DHT22;7702;51.046;5.184;2023-04-06T06:02:10;4.60;99.90
15203;DHT22;7702;51.046;5.184;2023-04-06T06:04:36;4.60;99.90
15203;DHT22;7702;51.046;5.184;2023-04-06T06:07:02;4.60;99.90
15203;DHT22;7702;51.046;5.184;2023-04-06T06:09:28;4.60;99.90
15203;DHT22;7702;51.046;5.184;2023-04-06T06:11:54;4.60;99.90
15203;DHT22;7702;51.046;5.184;2023-04-06T06:14:19;4.70;99.90
15203;DHT22;7702;51.046;5.184;2023-04-06T06:16:47;4.70;99.90
15203;DHT22;7702;51.046;5.184;2023-04-06T06:19:13;4.80;99.90
15203;DHT22;7702;51.046;5.184;2023-04-06T06:21:39;4.80;99.90
15203;DHT22;7702;51.046;5.184;2023-04-06T06:24:05;4.90;99.90
15203;DHT22;7702;51.046;5.184;2023-04-06T06:26:31;5.00;99.90
15203;DHT22;7702;51.046;5.184;2023-04-06T06:28:57;5.10;99.90
15203;DHT22;7702;51.046;5.184;2023-04-06T06:31:22;5.10;99.90
15203;DHT22;7702;51.046;5.184;2023-04-06T06:33:48;5.20;99.90
15203;DHT22;7702;51.046;5.184;2023-04-06T06:36:18;5.30;99.90
15203;DHT22;7702;51.046;5.184;2023-04-06T06:38:44;5.30;99.90
15203;DHT22;7702;51.046;5.184;2023-04-06T06:41:10;5.30;99.90
15203;DHT22;7702;51.046;5.184;2023-04-06T06:43:36;5.50;99.90
15203;DHT22;7702;51.046;5.184;2023-04-06T06:46:03;5.50;99.90
15203;DHT22;7702;51.046;5.184;2023-04-06T06:48:29;5.70;99.90
15203;DHT22;7702;51.046;5.184;2023-04-06T06:50:55;5.80;99.90
15203;DHT22;7702;51.046;5.184;2023-04-06T06:53:21;6.00;99.90
15203;DHT22;7702;51.046;5.184;2023-04-06T06:55:46;6.00;99.90
15203;DHT22;7702;51.046;5.184;2023-04-06T06:58:14;6.10;99.90
15203;DHT22;7702;51.046;5.184;2023-04-06T07:00:40;6.10;99.90
15203;DHT22;7702;51.046;5.184;2023-04-06T07:03:06;6.20;99.90
15203;DHT22;7702;51.046;5.184;2023-04-06T07:05:32;6.30;99.90
15203;DHT22;7702;51.046;5.184;2023-04-06T07:07:58;6.40;99.90
15203;DHT22;7702;51.046;5.184;2023-04-06T07:10:24;6.40;99.90
15203;DHT22;7702;51.046;5.184;2023-04-06T07:12:50;6.50;99.90
15203;DHT22;7702;51.046;5.184;2023-04-06T07:15:16;6.60;99.90
15203;DHT22;7702;51.046;5.184;2023-04-06T07:17:43;6.70;99.90
15203;DHT22;7702;51.046;5.184;2023-04-06T07:20:11;6.90;99.90
15203;DHT22;7702;51.046;5.184;2023-04-06T07:22:38;7.00;99.90
15203;DHT22;7702;51.046;5.184;2023-04-06T07:25:04;7.10;99.90
15203;DHT22;7702;51.046;5.184;2023-04-06T07:27:30;7.20;99.90
15203;DHT22;7702;51.046;5.184;2023-04-06T07:29:56;7.20;99.90
15203;DHT22;7702;51.046;5.184;2023-04-06T07:32:22;7.30;99.90
15203;DHT22;7702;51.046;5.184;2023-04-06T07:34:48;7.50;99.90
15203;DHT22;7702;51.046;5.184;2023-04-06T07:37:13;7.60;99.90
15203;DHT22;7702;51.046;5.184;2023-04-06T07:39:39;7.60;99.90
15203;DHT22;7702;51.046;5.184;2023-04-06T07:42:06;7.70;99.90
15203;DHT22;7702;51.046;5.184;2023-04-06T07:44:33;7.70;99.90
15203;DHT22;7702;51.046;5.184;2023-04-06T07:46:58;7.60;99.90
15203;DHT22;7702;51.046;5.184;2023-04-06T07:49:24;7.60;99.90
15203;DHT22;7702;51.046;5.184;2023-04-06T07:51:50;7.40;99.90
15203;DHT22;7702;51.046;5.184;2023-04-06T07:54:16;7.40;99.90
15203;DHT22;7702;51.046;5.184;2023-04-06T07:56:42;7.40;99.90
15203;DHT22;7702;51.046;5.184;2023-04-06T07:59:08;7.40;99.90
15203;DHT22;7702;51.046;5.184;2023-04-06T08:01:34;7.50;99.90
15203;DHT22;7702;51.046;5.184;2023-04-06T08:03:59;7.50;99.90
15203;DHT22;7702;51.046;5.184;2023-04-06T08:06:27;7.60;99.90
15203;DHT22;7702;51.046;5.184;2023-04-06T08:08:54;7.60;99.90
15203;DHT22;7702;51.046;5.184;2023-04-06T08:11:19;7.60;99.90
15203;DHT22;7702;51.046;5.184;2023-04-06T08:13:46;7.80;99.90
15203;DHT22;7702;51.046;5.184;2023-04-06T08:16:12;7.90;99.90
15203;DHT22;7702;51.046;5.184;2023-04-06T08:18:37;7.90;99.90
15203;DHT22;7702;51.046;5.184;2023-04-06T08:21:03;7.90;99.90
15203;DHT22;7702;51.046;5.184;2023-04-06T08:23:29;7.90;99.90
15203;DHT22;7702;51.046;5.184;2023-04-06T08:25:54;8.00;99.90
15203;DHT22;7702;51.046;5.184;2023-04-06T08:28:21;8.10;99.90
15203;DHT22;7702;51.046;5.184;2023-04-06T08:30:47;8.30;99.90
15203;DHT22;7702;51.046;5.184;2023-04-06T08:33:12;8.40;99.90
15203;DHT22;7702;51.046;5.184;2023-04-06T08:35:38;8.40;99.90
15203;DHT22;7702;51.046;5.184;2023-04-06T08:38:04;8.40;99.90
15203;DHT22;7702;51.046;5.184;2023-04-06T08:40:35;8.40;99.90
15203;DHT22;7702;51.046;5.184;2023-04-06T08:43:02;8.50;99.90
15203;DHT22;7702;51.046;5.184;2023-04-06T08:45:29;8.70;99.90
15203;DHT22;7702;51.046;5.184;2023-04-06T08:47:57;8.80;99.90
15203;DHT22;7702;51.046;5.184;2023-04-06T08:50:24;8.80;99.90
15203;DHT22;7702;51.046;5.184;2023-04-06T08:52:51;8.90;99.90
15203;DHT22;7702;51.046;5.184;2023-04-06T08:55:17;9.00;99.90
15203;DHT22;7702;51.046;5.184;2023-04-06T08:57:43;9.10;99.90
15203;DHT22;7702;51.046;5.184;2023-04-06T09:00:10;9.10;99.90
15203;DHT22;7702;51.046;5.184;2023-04-06T09:02:42;9.10;99.90
15203;DHT22;7702;51.046;5.184;2023-04-06T09:05:09;9.10;99.90
15203;DHT22;7702;51.046;5.184;2023-04-06T09:07:36;9.00;99.90
15203;DHT22;7702;51.046;5.184;2023-04-06T09:10:04;9.00;99.90
15203;DHT22;7702;51.046;5.184;2023-04-06T09:12:31;8.90;99.90
15203;DHT22;7702;51.046;5.184;2023-04-06T09:14:58;8.90;99.90
15203;DHT22;7702;51.046;5.184;2023-04-06T09:17:29;9.00;99.90
15203;DHT22;7702;51.046;5.184;2023-04-06T09:19:56;9.10;99.90
15203;DHT22;7702;51.046;5.184;2023-04-06T09:22:22;9.10;99.90
15203;DHT22;7702;51.046;5.184;2023-04-06T09:24:53;9.30;99.90
15203;DHT22;7702;51.046;5.184;2023-04-06T09:27:34;9.30;99.90
15203;DHT22;7702;51.046;5.184;2023-04-06T09:30:08;9.20;99.90
15203;DHT22;7702;51.046;5.184;2023-04-06T09:32:49;9.10;99.90
15203;DHT22;7702;51.046;5.184;2023-04-06T09:35:16;9.10;99.90
15203;DHT22;7702;51.046;5.184;2023-04-06T09:37:43;9.10;99.90
15203;DHT22;7702;51.046;5.184;2023-04-06T09:40:09;9.10;99.90
15203;DHT22;7702;51.046;5.184;2023-04-06T09:42:35;9.10;99.90
15203;DHT22;7702;51.046;5.184;2023-04-06T09:45:02;9.00;99.90
15203;DHT22;7702;51.046;5.184;2023-04-06T09:47:32;8.90;99.90
15203;DHT22;7702;51.046;5.184;2023-04-06T09:49:59;8.80;99.90
15203;DHT22;7702;51.046;5.184;2023-04-06T09:52:46;8.70;99.90
15203;DHT22;7702;51.046;5.184;2023-04-06T09:55:20;8.70;99.90
15203;DHT22;7702;51.046;5.184;2023-04-06T09:58:06;8.70;99.90
15203;DHT22;7702;51.046;5.184;2023-04-06T10:00:40;8.70;99.90
15203;DHT22;7702;51.046;5.184;2023-04-06T10:03:17;8.80;99.90
15203;DHT22;7702;51.046;5.184;2023-04-06T10:05:57;8.70;99.90
15203;DHT22;7702;51.046;5.184;2023-04-06T10:08:27;8.70;99.90
15203;DHT22;7702;51.046;5.184;2023-04-06T10:10:55;8.70;99.90
15203;DHT22;7702;51.046;5.184;2023-04-06T10:13:23;8.60;99.90
15203;DHT22;7702;51.046;5.184;2023-04-06T10:15:51;8.60;99.90
15203;DHT22;7702;51.046;5.184;2023-04-06T10:18:17;8.60;99.90
15203;DHT22;7702;51.046;5.184;2023-04-06T10:20:53;8.60;99.90
15203;DHT22;7702;51.046;5.184;2023-04-06T10:23:31;8.60;99.90
15203;DHT22;7702;51.046;5.184;2023-04-06T10:25:59;8.60;99.90
15203;DHT22;7702;51.046;5.184;2023-04-06T10:28:30;8.50;99.90
15203;DHT22;7702;51.046;5.184;2023-04-06T10:31:00;8.60;99.90
15203;DHT22;7702;51.046;5.184;2023-04-06T10:33:27;8.60;99.90
15203;DHT22;7702;51.046;5.184;2023-04-06T10:35:53;8.60;99.90
15203;DHT22;7702;51.046;5.184;2023-04-06T10:38:21;8.70;99.90
15203;DHT22;7702;51.046;5.184;2023-04-06T10:40:48;8.60;99.90
15203;DHT22;7702;51.046;5.184;2023-04-06T10:43:20;8.70;99.90
15203;DHT22;7702;51.046;5.184;2023-04-06T10:45:55;8.60;99.90
15203;DHT22;7702;51.046;5.184;2023-04-06T10:48:22;8.70;99.90
15203;DHT22;7702;51.046;5.184;2023-04-06T10:50:50;8.60;99.90
15203;DHT22;7702;51.046;5.184;2023-04-06T10:53:27;8.60;99.90
15203;DHT22;7702;51.046;5.184;2023-04-06T10:55:56;8.60;99.90
15203;DHT22;7702;51.046;5.184;2023-04-06T10:58:26;8.70;99.90
15203;DHT22;7702;51.046;5.184;2023-04-06T11:00:52;8.70;99.90
15203;DHT22;7702;51.046;5.184;2023-04-06T11:03:19;8.80;99.90
15203;DHT22;7702;51.046;5.184;2023-04-06T11:05:48;8.70;99.90
15203;DHT22;7702;51.046;5.184;2023-04-06T11:08:26;8.80;99.90
15203;DHT22;7702;51.046;5.184;2023-04-06T11:11:04;8.80;99.90
15203;DHT22;7702;51.046;5.184;2023-04-06T11:13:43;8.80;99.90
15203;DHT22;7702;51.046;5.184;2023-04-06T11:18:54;8.90;99.90
15203;DHT22;7702;51.046;5.184;2023-04-06T11:24:08;9.10;99.90
15203;DHT22;7702;51.046;5.184;2023-04-06T11:29:07;9.10;99.90
15203;DHT22;7702;51.046;5.184;2023-04-06T11:31:40;9.20;99.90
15203;DHT22;7702;51.046;5.184;2023-04-06T11:34:12;9.20;99.90
15203;DHT22;7702;51.046;5.184;2023-04-06T11:36:40;9.20;99.90
15203;DHT22;7702;51.046;5.184;2023-04-06T11:39:07;9.10;99.90
15203;DHT22;7702;51.046;5.184;2023-04-06T11:41:33;9.30;99.90
15203;DHT22;7702;51.046;5.184;2023-04-06T11:44:01;9.20;99.90
15203;DHT22;7702;51.046;5.184;2023-04-06T11:46:28;9.20;99.90
15203;DHT22;7702;51.046;5.184;2023-04-06T11:48:58;9.20;99.90
15203;DHT22;7702;51.046;5.184;2023-04-06T11:51:26;9.20;99.90
15203;DHT22;7702;51.046;5.184;2023-04-06T11:53:55;9.10;99.90
15203;DHT22;7702;51.046;5.184;2023-04-06T11:56:28;9.10;99.90
15203;DHT22;7702;51.046;5.184;2023-04-06T11:58:56;9.10;99.90
15203;DHT22;7702;51.046;5.184;2023-04-06T12:01:23;9.00;99.90
15203;DHT22;7702;51.046;5.184;2023-04-06T12:03:50;9.10;99.90
15203;DHT22;7702;51.046;5.184;2023-04-06T12:06:16;9.20;99.90
15203;DHT22;7702;51.046;5.184;2023-04-06T12:08:43;9.20;99.90
15203;DHT22;7702;51.046;5.184;2023-04-06T12:11:10;9.20;99.90
15203;DHT22;7702;51.046;5.184;2023-04-06T12:13:37;9.20;99.90
15203;DHT22;7702;51.046;5.184;2023-04-06T12:16:02;9.10;99.90
15203;DHT22;7702;51.046;5.184;2023-04-06T12:18:29;9.00;99.90
15203;DHT22;7702;51.046;5.184;2023-04-06T12:20:55;9.00;99.90
15203;DHT22;7702;51.046;5.184;2023-04-06T12:23:21;9.00;99.90
15203;DHT22;7702;51.046;5.184;2023-04-06T12:25:47;8.90;99.90
15203;DHT22;7702;51.046;5.184;2023-04-06T12:28:13;8.80;99.90
15203;DHT22;7702;51.046;5.184;2023-04-06T12:30:38;8.80;99.90
15203;DHT22;7702;51.046;5.184;2023-04-06T12:33:06;8.80;99.90
15203;DHT22;7702;51.046;5.184;2023-04-06T12:35:35;8.60;99.90
15203;DHT22;7702;51.046;5.184;2023-04-06T12:38:02;8.60;99.90
15203;DHT22;7702;51.046;5.184;2023-04-06T12:40:28;8.60;99.90
15203;DHT22;7702;51.046;5.184;2023-04-06T12:42:54;8.60;99.90
15203;DHT22;7702;51.046;5.184;2023-04-06T12:45:20;8.50;99.90
15203;DHT22;7702;51.046;5.184;2023-04-06T12:47:45;8.50;99.90
15203;DHT22;7702;51.046;5.184;2023-04-06T12:50:12;8.50;99.90
15203;DHT22;7702;51.046;5.184;2023-04-06T12:52:37;8.60;99.90
15203;DHT22;7702;51.046;5.184;2023-04-06T12:55:03;8.60;99.90
15203;DHT22;7702;51.046;5.184;2023-04-06T12:57:30;8.60;99.90
15203;DHT22;7702;51.046;5.184;2023-04-06T12:59:57;8.60;99.90
15203;DHT22;7702;51.046;5.184;2023-04-06T13:02:22;8.70;99.90
15203;DHT22;7702;51.046;5.184;2023-04-06T13:04:49;8.70;99.90
15203;DHT22;7702;51.046;5.184;2023-04-06T13:07:15;8.70;99.90
15203;DHT22;7702;51.046;5.184;2023-04-06T13:09:41;8.80;99.90
15203;DHT22;7702;51.046;5.184;2023-04-06T13:12:07;8.80;99.90
15203;DHT22;7702;51.046;5.184;2023-04-06T13:14:33;8.80;99.90
15203;DHT22;7702;51.046;5.184;2023-04-06T13:16:59;8.90;99.90
15203;DHT22;7702;51.046;5.184;2023-04-06T13:19:25;8.90;99.90
15203;DHT22;7702;51.046;5.184;2023-04-06T13:21:51;9.00;99.90
15203;DHT22;7702;51.046;5.184;2023-04-06T13:24:17;9.10;99.90
15203;DHT22;7702;51.046;5.184;2023-04-06T13:26:43;9.10;99.90
15203;DHT22;7702;51.046;5.184;2023-04-06T13:29:09;9.10;99.90
15203;DHT22;7702;51.046;5.184;2023-04-06T13:31:35;9.00;99.90
15203;DHT22;7702;51.046;5.184;2023-04-06T13:34:02;9.10;99.90
15203;DHT22;7702;51.046;5.184;2023-04-06T13:36:27;9.10;99.90
15203;DHT22;7702;51.046;5.184;2023-04-06T13:38:53;9.20;99.90
15203;DHT22;7702;51.046;5.184;2023-04-06T13:41:21;9.10;99.90
15203;DHT22;7702;51.046;5.184;2023-04-06T13:43:47;9.10;99.90
15203;DHT22;7702;51.046;5.184;2023-04-06T13:46:13;9.10;99.90
15203;DHT22;7702;51.046;5.184;2023-04-06T13:48:39;9.20;99.90
15203;DHT22;7702;51.046;5.184;2023-04-06T13:51:08;9.10;99.90
15203;DHT22;7702;51.046;5.184;2023-04-06T13:53:35;9.10;99.90
15203;DHT22;7702;51.046;5.184;2023-04-06T13:56:01;9.00;99.90
15203;DHT22;7702;51.046;5.184;2023-04-06T13:58:27;8.90;99.90
15203;DHT22;7702;51.046;5.184;2023-04-06T14:00:53;8.90;99.90
15203;DHT22;7702;51.046;5.184;2023-04-06T14:03:19;9.00;99.90
15203;DHT22;7702;51.046;5.184;2023-04-06T14:05:45;9.00;99.90
15203;DHT22;7702;51.046;5.184;2023-04-06T14:08:11;9.10;99.90
15203;DHT22;7702;51.046;5.184;2023-04-06T14:10:40;9.20;99.90
15203;DHT22;7702;51.046;5.184;2023-04-06T14:13:07;9.20;99.90
15203;DHT22;7702;51.046;5.184;2023-04-06T14:15:33;9.30;99.90
15203;DHT22;7702;51.046;5.184;2023-04-06T14:17:59;9.30;99.90
15203;DHT22;7702;51.046;5.184;2023-04-06T14:20:25;9.30;99.90
15203;DHT22;7702;51.046;5.184;2023-04-06T14:22:51;9.20;99.90
15203;DHT22;7702;51.046;5.184;2023-04-06T14:25:18;9.20;99.90
15203;DHT22;7702;51.046;5.184;2023-04-06T14:27:43;9.10;99.90
15203;DHT22;7702;51.046;5.184;2023-04-06T14:30:10;9.10;99.90
15203;DHT22;7702;51.046;5.184;2023-04-06T14:32:36;9.10;99.90
15203;DHT22;7702;51.046;5.184;2023-04-06T14:35:06;9.10;99.90
15203;DHT22;7702;51.046;5.184;2023-04-06T14:37:32;9.10;99.90
15203;DHT22;7702;51.046;5.184;2023-04-06T14:39:58;9.10;99.90
15203;DHT22;7702;51.046;5.184;2023-04-06T14:42:23;9.00;99.90
15203;DHT22;7702;51.046;5.184;2023-04-06T14:44:49;9.00;99.90
15203;DHT22;7702;51.046;5.184;2023-04-06T14:47:15;8.90;99.90
15203;DHT22;7702;51.046;5.184;2023-04-06T14:49:46;9.00;99.90
15203;DHT22;7702;51.046;5.184;2023-04-06T14:52:12;9.00;99.90
15203;DHT22;7702;51.046;5.184;2023-04-06T14:54:38;8.80;99.90
15203;DHT22;7702;51.046;5.184;2023-04-06T14:57:04;8.80;99.90
15203;DHT22;7702;51.046;5.184;2023-04-06T14:59:30;8.70;99.90
15203;DHT22;7702;51.046;5.184;2023-04-06T15:01:58;8.70;99.90
15203;DHT22;7702;51.046;5.184;2023-04-06T15:04:25;8.70;99.90
15203;DHT22;7702;51.046;5.184;2023-04-06T15:06:51;8.80;99.90
15203;DHT22;7702;51.046;5.184;2023-04-06T15:09:16;8.80;99.90
15203;DHT22;7702;51.046;5.184;2023-04-06T15:11:42;8.80;99.90
15203;DHT22;7702;51.046;5.184;2023-04-06T15:14:08;8.80;99.90
15203;DHT22;7702;51.046;5.184;2023-04-06T15:16:34;8.80;99.90
15203;DHT22;7702;51.046;5.184;2023-04-06T15:19:00;8.80;99.90
15203;DHT22;7702;51.046;5.184;2023-04-06T15:21:26;8.70;99.90
15203;DHT22;7702;51.046;5.184;2023-04-06T15:23:52;8.70;99.90
15203;DHT22;7702;51.046;5.184;2023-04-06T15:26:18;8.70;99.90
15203;DHT22;7702;51.046;5.184;2023-04-06T15:28:43;8.70;99.90
15203;DHT22;7702;51.046;5.184;2023-04-06T15:31:16;8.80;99.90
15203;DHT22;7702;51.046;5.184;2023-04-06T15:33:42;8.70;99.90
15203;DHT22;7702;51.046;5.184;2023-04-06T15:36:23;8.70;99.90
15203;DHT22;7702;51.046;5.184;2023-04-06T15:38:54;8.70;99.90
15203;DHT22;7702;51.046;5.184;2023-04-06T15:41:21;8.70;99.90
15203;DHT22;7702;51.046;5.184;2023-04-06T15:43:47;8.70;99.90
15203;DHT22;7702;51.046;5.184;2023-04-06T15:46:13;8.70;99.90
15203;DHT22;7702;51.046;5.184;2023-04-06T15:48:39;8.70;99.90
15203;DHT22;7702;51.046;5.184;2023-04-06T15:51:05;8.60;99.90
15203;DHT22;7702;51.046;5.184;2023-04-06T15:53:31;8.60;99.90
15203;DHT22;7702;51.046;5.184;2023-04-06T15:56:02;8.60;99.90
15203;DHT22;7702;51.046;5.184;2023-04-06T15:58:28;8.60;99.90
15203;DHT22;7702;51.046;5.184;2023-04-06T16:00:54;8.60;99.90
15203;DHT22;7702;51.046;5.184;2023-04-06T16:03:20;8.60;99.90
15203;DHT22;7702;51.046;5.184;2023-04-06T16:05:46;8.70;99.90
15203;DHT22;7702;51.046;5.184;2023-04-06T16:08:12;8.70;99.90